Crackville, Louisiana
Current Conditions -  °F | °C
As of 8:15 PM on Saturday 22 Nov 2014 (Local Time) from KOPL Reporting Station
Overcast Overcast  
Wind Chill: 64°   Ceiling: 1300
Heat Index: 64°   Visibility: 10mi
Dew Point: 60°   Wind: 9mph
Humidity: 87%   Direction: 100°E
Pressure: 29.92"   Gusts: NA
Location:  30.9908°N, 92.0816°W
Report Text: KOPL 230215Z AUTO 10008KT 10SM OVC013 18/16 A2992 RMK AO2 T01770155
Loading
Personal Weather Stations






























Interactive Weather Map New forecast layout! Learn more

10-Day Weather Forecast

Advertisements
Track Severe Weather on mobile